createdAt,value
2023-01-07T00:02:58.720Z,10.12
2023-01-07T00:06:01.027Z,10.25
2023-01-07T00:09:03.634Z,10.78
2023-01-07T00:12:05.655Z,10.55
2023-01-07T00:15:07.856Z,10.60
2023-01-07T00:18:09.778Z,10.55
2023-01-07T00:21:12.932Z,10.61
2023-01-07T00:24:16.262Z,10.82
2023-01-07T00:27:19.411Z,10.56
2023-01-07T00:30:21.248Z,10.69
2023-01-07T00:33:25.270Z,10.85
2023-01-07T00:36:28.269Z,10.10
2023-01-07T00:39:30.205Z,9.73
2023-01-07T00:42:50.828Z,10.22
2023-01-07T00:45:52.824Z,9.97
2023-01-07T00:48:54.668Z,9.78
2023-01-07T00:51:56.527Z,10.43
2023-01-07T00:54:59.220Z,10.51
2023-01-07T00:58:01.323Z,9.66
2023-01-07T01:01:03.374Z,9.55
2023-01-07T01:04:06.462Z,9.75
2023-01-07T01:07:08.373Z,9.90
2023-01-07T01:10:11.758Z,9.94
2023-01-07T01:13:15.455Z,10.32
2023-01-07T01:16:18.704Z,10.84
2023-01-07T01:19:20.574Z,10.30
2023-01-07T01:22:22.521Z,10.30
2023-01-07T01:25:24.322Z,9.68
2023-01-07T01:28:26.315Z,9.85
2023-01-07T01:31:28.343Z,10.52
2023-01-07T01:34:30.230Z,10.44
2023-01-07T01:37:32.070Z,10.17
2023-01-07T01:40:33.989Z,10.32
2023-01-07T01:43:37.494Z,9.38
2023-01-07T01:46:40.208Z,9.42
2023-01-07T01:49:44.978Z,10.03
2023-01-07T01:52:55.470Z,9.48
2023-01-07T01:55:59.013Z,9.71
2023-01-07T01:59:01.851Z,9.92
2023-01-07T02:02:03.836Z,10.03
2023-01-07T02:05:06.133Z,10.29
2023-01-07T02:08:08.398Z,9.40
2023-01-07T02:11:10.344Z,9.42
2023-01-07T02:14:17.394Z,9.62
2023-01-07T02:17:19.213Z,10.46
2023-01-07T02:20:27.488Z,10.50
2023-01-07T02:23:32.462Z,9.82
2023-01-07T02:26:53.209Z,10.21
2023-01-07T02:30:07.170Z,10.36
2023-01-07T02:33:10.495Z,10.34
2023-01-07T02:36:18.542Z,9.96
2023-01-07T02:39:26.284Z,9.70
2023-01-07T02:42:36.110Z,9.75
2023-01-07T02:45:48.366Z,9.65
2023-01-07T02:48:50.429Z,9.71
2023-01-07T02:51:52.333Z,8.63
2023-01-07T02:55:05.421Z,9.33
2023-01-07T02:58:25.984Z,9.29
2023-01-07T03:01:37.981Z,9.33
2023-01-07T03:04:48.799Z,9.08
2023-01-07T03:07:50.640Z,8.60
2023-01-07T03:10:59.784Z,8.33
2023-01-07T03:14:18.835Z,8.75
2023-01-07T03:17:21.391Z,8.86
2023-01-07T03:20:23.600Z,8.91
2023-01-07T03:23:26.172Z,8.28
2023-01-07T03:26:32.262Z,8.87
2023-01-07T03:29:35.796Z,8.50
2023-01-07T03:32:39.236Z,9.04
2023-01-07T03:35:41.761Z,8.64
2023-01-07T03:38:43.622Z,8.94
2023-01-07T03:42:04.192Z,8.68
2023-01-07T03:45:13.398Z,8.59
2023-01-07T03:48:15.258Z,8.82
2023-01-07T03:51:17.179Z,8.29
2023-01-07T03:54:19.026Z,8.85
2023-01-07T03:57:20.925Z,8.11
2023-01-07T04:00:22.844Z,8.57
2023-01-07T04:03:24.885Z,7.60
2023-01-07T04:06:26.974Z,8.41
2023-01-07T04:09:28.798Z,8.97
2023-01-07T04:12:30.710Z,8.93
2023-01-07T04:15:32.603Z,8.96
2023-01-07T04:18:34.468Z,9.02
2023-01-07T04:21:36.492Z,8.25
2023-01-07T04:24:38.392Z,8.56
2023-01-07T04:27:40.328Z,7.73
2023-01-07T04:30:42.293Z,7.35
2023-01-07T04:33:44.199Z,8.59
2023-01-07T04:36:46.121Z,8.75
2023-01-07T04:39:47.979Z,8.55
2023-01-07T04:42:49.835Z,9.00
2023-01-07T04:45:51.726Z,8.78
2023-01-07T04:48:53.600Z,9.00
2023-01-07T04:51:55.456Z,8.79
2023-01-07T04:54:57.330Z,8.37
2023-01-07T04:57:59.151Z,8.01
2023-01-07T05:01:03.783Z,7.96
2023-01-07T05:04:05.797Z,7.65
2023-01-07T05:07:07.745Z,8.23
2023-01-07T05:10:10.197Z,7.91
2023-01-07T05:13:16.353Z,7.57
2023-01-07T05:16:18.317Z,7.72
2023-01-07T05:19:21.823Z,7.37
2023-01-07T05:22:23.817Z,7.77
2023-01-07T05:25:25.795Z,7.18
2023-01-07T05:28:27.692Z,7.29
2023-01-07T05:31:29.582Z,7.58
2023-01-07T05:34:31.488Z,8.21
2023-01-07T05:37:33.913Z,8.15
2023-01-07T05:40:35.743Z,8.21
2023-01-07T05:43:37.680Z,9.03
2023-01-07T05:46:39.583Z,8.25
2023-01-07T05:49:41.538Z,7.83
2023-01-07T05:52:43.387Z,8.42
2023-01-07T05:55:45.347Z,8.91
2023-01-07T05:58:47.264Z,8.52
2023-01-07T06:01:49.288Z,8.47
2023-01-07T06:04:51.233Z,8.85
2023-01-07T06:07:53.150Z,8.85
2023-01-07T06:10:55.190Z,9.18
2023-01-07T06:13:57.053Z,8.70
2023-01-07T06:16:59.637Z,8.80
2023-01-07T06:20:01.525Z,8.22
2023-01-07T06:23:05.017Z,8.66
2023-01-07T06:26:07.071Z,8.82
2023-01-07T06:29:10.015Z,8.59
2023-01-07T06:32:11.953Z,8.80
2023-01-07T06:35:14.027Z,8.76
2023-01-07T06:38:15.996Z,8.53
2023-01-07T06:41:18.003Z,8.84
2023-01-07T06:44:19.944Z,8.63
2023-01-07T06:47:21.831Z,8.63
2023-01-07T06:50:23.783Z,8.56
2023-01-07T06:53:25.633Z,8.26
2023-01-07T06:56:27.563Z,8.58
2023-01-07T06:59:29.534Z,8.71
2023-01-07T07:02:31.723Z,8.13
2023-01-07T07:05:34.116Z,8.55
2023-01-07T07:08:36.057Z,8.19
2023-01-07T07:11:40.244Z,8.52
2023-01-07T07:14:42.097Z,8.22
2023-01-07T07:17:44.078Z,8.41
2023-01-07T07:20:46.349Z,6.72
2023-01-07T07:23:48.395Z,6.89
2023-01-07T07:26:50.303Z,6.87
2023-01-07T07:29:52.224Z,7.27
2023-01-07T07:32:54.102Z,7.40
2023-01-07T07:35:56.348Z,7.85
2023-01-07T07:38:58.249Z,8.04
2023-01-07T07:42:02.439Z,7.92
2023-01-07T07:45:05.430Z,7.57
2023-01-07T07:48:07.956Z,7.46
2023-01-07T07:51:09.924Z,7.90
2023-01-07T07:54:11.800Z,7.76
2023-01-07T07:57:13.696Z,7.76
2023-01-07T08:00:16.394Z,7.70
2023-01-07T08:03:18.452Z,8.24
2023-01-07T08:06:20.366Z,8.27
2023-01-07T08:09:22.228Z,7.78
2023-01-07T08:12:24.286Z,8.31
2023-01-07T08:15:26.122Z,9.13
2023-01-07T08:18:28.063Z,9.02
2023-01-07T08:21:29.885Z,8.50
2023-01-07T08:24:31.836Z,8.53
2023-01-07T08:27:33.724Z,8.91
2023-01-07T08:30:35.844Z,8.95
2023-01-07T08:33:38.695Z,9.37
2023-01-07T08:36:40.555Z,10.55
2023-01-07T08:39:42.675Z,10.58
2023-01-07T08:42:44.563Z,9.91
2023-01-07T08:45:50.022Z,9.44
2023-01-07T08:48:54.412Z,9.82
2023-01-07T08:51:56.341Z,10.17
2023-01-07T08:54:58.288Z,9.85
2023-01-07T08:58:00.289Z,9.83
2023-01-07T09:01:03.225Z,10.58
2023-01-07T09:04:05.313Z,10.48
2023-01-07T09:07:07.434Z,10.76
2023-01-07T09:10:09.973Z,11.13
2023-01-07T09:13:12.025Z,10.81
2023-01-07T09:16:14.434Z,11.13
2023-01-07T09:19:16.381Z,11.33
2023-01-07T09:22:18.460Z,11.14
2023-01-07T09:25:20.359Z,10.83
2023-01-07T09:28:22.227Z,11.60
2023-01-07T09:31:24.279Z,11.60
2023-01-07T09:34:26.382Z,11.12
2023-01-07T09:37:28.444Z,11.85
2023-01-07T09:40:41.747Z,11.28
2023-01-07T09:44:00.971Z,11.63
2023-01-07T09:47:03.788Z,11.98
2023-01-07T09:50:09.944Z,11.88
2023-01-07T09:53:26.835Z,11.99
2023-01-07T09:56:35.311Z,12.50
2023-01-07T09:59:37.292Z,12.61
2023-01-07T10:02:57.863Z,12.56
2023-01-07T10:06:11.098Z,12.01
2023-01-07T10:09:19.952Z,12.26
2023-01-07T10:12:21.916Z,12.51
2023-01-07T10:15:23.891Z,12.62
2023-01-07T10:18:33.262Z,12.82
2023-01-07T10:21:38.317Z,13.09
2023-01-07T10:24:41.772Z,13.24
2023-01-07T10:27:44.038Z,13.37
2023-01-07T10:30:46.677Z,13.57
2023-01-07T10:33:48.829Z,13.69
2023-01-07T10:37:00.432Z,13.17
2023-01-07T10:40:17.607Z,13.18
2023-01-07T10:43:28.628Z,12.68
2023-01-07T10:46:34.008Z,13.29
2023-01-07T10:49:42.083Z,12.95
2023-01-07T10:52:44.033Z,12.92
2023-01-07T10:55:53.646Z,13.90
2023-01-07T10:58:55.705Z,14.26
2023-01-07T11:01:58.623Z,13.95
2023-01-07T11:05:00.745Z,14.36
2023-01-07T11:08:02.671Z,14.57
2023-01-07T11:11:05.074Z,14.28
2023-01-07T11:14:10.055Z,14.03
2023-01-07T11:17:14.951Z,14.29
2023-01-07T11:20:36.701Z,15.51
2023-01-07T11:23:43.934Z,16.11
2023-01-07T11:26:46.090Z,16.62
2023-01-07T11:29:59.438Z,16.21
2023-01-07T11:33:05.436Z,16.22
2023-01-07T11:36:07.921Z,18.41
2023-01-07T11:39:11.181Z,19.40
2023-01-07T11:42:35.959Z,20.10
2023-01-07T11:45:40.802Z,21.50
2023-01-07T11:48:52.753Z,20.88
2023-01-07T11:51:54.700Z,20.60
2023-01-07T11:54:56.569Z,19.13
2023-01-07T11:58:29.380Z,21.54
2023-01-07T12:01:23.760Z,22.38
2023-01-07T12:04:28.802Z,21.38
2023-01-07T12:07:30.778Z,20.86
2023-01-07T12:10:36.801Z,20.65
2023-01-07T12:13:39.858Z,22.77
2023-01-07T12:16:41.816Z,22.93
2023-01-07T12:19:46.735Z,23.80
2023-01-07T12:23:00.889Z,25.35
2023-01-07T12:26:09.102Z,26.25
2023-01-07T12:29:18.158Z,27.38
2023-01-07T12:32:20.165Z,25.87
2023-01-07T12:35:26.165Z,25.73
2023-01-07T12:38:34.011Z,26.29
2023-01-07T12:41:43.669Z,25.90
2023-01-07T12:44:52.657Z,26.54
2023-01-07T12:47:55.141Z,26.61
2023-01-07T12:50:57.481Z,24.07
2023-01-07T12:54:11.491Z,23.86
2023-01-07T12:57:18.053Z,23.10
2023-01-07T13:00:24.827Z,24.81
2023-01-07T13:03:47.099Z,25.62
2023-01-07T13:06:50.495Z,27.95
2023-01-07T13:09:57.196Z,26.14
2023-01-07T13:13:01.804Z,26.37
2023-01-07T13:16:11.385Z,25.62
2023-01-07T13:19:13.271Z,23.65
2023-01-07T13:22:20.989Z,21.58
2023-01-07T13:25:30.030Z,19.82
2023-01-07T13:28:41.184Z,20.24
2023-01-07T13:31:49.239Z,19.85
2023-01-07T13:35:10.135Z,19.15
2023-01-07T13:38:12.030Z,16.55
2023-01-07T13:41:17.792Z,16.96
2023-01-07T13:44:29.063Z,17.73
2023-01-07T13:47:40.070Z,17.39
2023-01-07T13:50:42.662Z,16.90
2023-01-07T13:53:46.729Z,16.99
2023-01-07T13:56:48.807Z,16.44
2023-01-07T13:59:52.808Z,15.96
2023-01-07T14:02:58.128Z,16.17
2023-01-07T14:06:18.796Z,15.08
2023-01-07T14:09:22.001Z,14.88
2023-01-07T14:12:29.340Z,14.57
2023-01-07T14:15:51.671Z,15.95
2023-01-07T14:18:59.610Z,17.29
2023-01-07T14:22:05.300Z,16.28
2023-01-07T14:25:10.200Z,16.45
2023-01-07T14:28:24.488Z,15.06
2023-01-07T14:31:27.626Z,14.70
2023-01-07T14:34:29.641Z,14.62
2023-01-07T14:37:35.744Z,14.74
2023-01-07T14:40:37.747Z,14.31
2023-01-07T14:43:48.461Z,12.86
2023-01-07T14:46:50.487Z,13.14
2023-01-07T14:50:15.720Z,13.06
2023-01-07T14:53:36.266Z,13.17
2023-01-07T14:56:47.227Z,13.41
2023-01-07T14:59:58.260Z,12.81
2023-01-07T15:03:03.710Z,11.23
2023-01-07T15:06:05.603Z,12.85
2023-01-07T15:09:47.357Z,13.19
2023-01-07T15:13:13.696Z,11.65
2023-01-07T15:16:16.158Z,12.71
2023-01-07T15:19:18.089Z,12.32
2023-01-07T15:22:35.436Z,12.56
2023-01-07T15:25:50.852Z,11.79
2023-01-07T15:29:18.924Z,12.18
2023-01-07T15:32:20.825Z,11.42
2023-01-07T15:35:26.044Z,11.48
2023-01-07T15:38:29.334Z,11.78
2023-01-07T15:41:38.364Z,11.28
2023-01-07T15:44:41.263Z,11.69
2023-01-07T15:47:43.513Z,11.25
2023-01-07T15:50:45.623Z,10.99
2023-01-07T15:53:54.960Z,10.28
2023-01-07T15:57:05.421Z,11.11
2023-01-07T16:00:08.170Z,11.10
2023-01-07T16:03:14.717Z,11.18
2023-01-07T16:06:34.434Z,11.18
2023-01-07T16:09:36.390Z,11.19
2023-01-07T16:12:38.562Z,10.45
2023-01-07T16:15:41.449Z,9.75
2023-01-07T16:18:48.018Z,9.32
2023-01-07T16:21:53.620Z,10.46
2023-01-07T16:24:55.530Z,10.55
2023-01-07T16:27:57.418Z,10.32
2023-01-07T16:30:59.443Z,9.06
2023-01-07T16:34:02.209Z,9.59
2023-01-07T16:37:05.673Z,9.35
2023-01-07T16:40:12.342Z,9.04
2023-01-07T16:43:29.541Z,9.46
2023-01-07T16:46:36.113Z,9.06
2023-01-07T16:49:37.947Z,9.08
2023-01-07T16:52:49.605Z,8.90
2023-01-07T16:56:06.821Z,8.65
2023-01-07T16:59:12.400Z,8.81
2023-01-07T17:02:20.442Z,8.54
2023-01-07T17:05:22.283Z,7.63
2023-01-07T17:08:24.221Z,7.96
2023-01-07T17:11:29.123Z,8.72
2023-01-07T17:14:34.292Z,8.16
2023-01-07T17:17:36.274Z,7.85
2023-01-07T17:20:50.226Z,7.90
2023-01-07T17:23:52.137Z,8.45
2023-01-07T17:26:54.910Z,8.54
2023-01-07T17:29:56.726Z,8.77
2023-01-07T17:32:58.710Z,8.50
2023-01-07T17:36:00.564Z,8.08
2023-01-07T17:39:02.642Z,8.00
2023-01-07T17:42:23.020Z,8.70
2023-01-07T17:45:25.023Z,8.70
2023-01-07T17:48:27.297Z,8.64
2023-01-07T17:51:29.396Z,8.78
2023-01-07T17:54:32.224Z,9.13
2023-01-07T17:57:34.079Z,8.60
2023-01-07T18:00:36.817Z,8.19
2023-01-07T18:03:38.794Z,7.24
2023-01-07T18:06:42.001Z,7.80
2023-01-07T18:09:44.588Z,8.64
2023-01-07T18:12:46.788Z,7.78
2023-01-07T18:15:48.814Z,7.99
2023-01-07T18:18:50.643Z,8.14
2023-01-07T18:21:52.488Z,7.87
2023-01-07T18:24:56.534Z,7.97
2023-01-07T18:27:58.420Z,8.49
2023-01-07T18:31:00.286Z,7.71
2023-01-07T18:34:02.132Z,8.29
2023-01-07T18:37:04.070Z,8.57
2023-01-07T18:40:06.483Z,8.07
2023-01-07T18:43:11.283Z,7.49
2023-01-07T18:46:13.430Z,7.93
2023-01-07T18:49:15.405Z,8.09
2023-01-07T18:52:17.362Z,7.70
2023-01-07T18:55:19.461Z,8.33
2023-01-07T18:58:22.925Z,7.92
2023-01-07T19:01:24.952Z,8.20
2023-01-07T19:04:27.096Z,7.64
2023-01-07T19:07:29.468Z,7.88
2023-01-07T19:10:31.378Z,8.06
2023-01-07T19:13:33.250Z,7.74
2023-01-07T19:16:36.266Z,8.28
2023-01-07T19:19:47.948Z,8.31
2023-01-07T19:22:50.759Z,8.07
2023-01-07T19:25:56.441Z,8.71
2023-01-07T19:28:58.337Z,8.54
2023-01-07T19:32:00.311Z,8.25
2023-01-07T19:35:02.250Z,8.64
2023-01-07T19:38:04.287Z,8.46
2023-01-07T19:41:07.010Z,8.57
2023-01-07T19:44:08.908Z,8.68
2023-01-07T19:47:10.839Z,7.90
2023-01-07T19:50:12.754Z,8.07
2023-01-07T19:53:14.561Z,8.18
2023-01-07T19:56:16.502Z,8.09
2023-01-07T19:59:18.475Z,9.30
2023-01-07T20:02:20.577Z,8.86
2023-01-07T20:05:25.713Z,9.43
2023-01-07T20:08:32.243Z,9.27
2023-01-07T20:11:34.260Z,8.50
2023-01-07T20:14:36.283Z,8.51
2023-01-07T20:17:38.709Z,9.05
2023-01-07T20:20:40.602Z,8.57
2023-01-07T20:23:42.677Z,9.02
2023-01-07T20:26:44.598Z,8.65
2023-01-07T20:29:46.659Z,9.21
2023-01-07T20:32:48.583Z,9.77
2023-01-07T20:35:58.875Z,9.39
2023-01-07T20:39:05.722Z,9.78
2023-01-07T20:42:07.738Z,9.29
2023-01-07T20:45:09.897Z,9.92
2023-01-07T20:48:14.058Z,10.19
2023-01-07T20:51:16.349Z,9.55
2023-01-07T20:54:18.292Z,9.13
2023-01-07T20:57:20.288Z,9.57
2023-01-07T21:00:22.122Z,9.49
2023-01-07T21:03:24.073Z,9.43
2023-01-07T21:06:26.153Z,8.65
2023-01-07T21:09:28.128Z,8.96
2023-01-07T21:12:29.983Z,9.09
2023-01-07T21:15:31.874Z,8.78
2023-01-07T21:18:33.985Z,9.62
2023-01-07T21:21:35.884Z,9.15
2023-01-07T21:24:37.719Z,8.64
2023-01-07T21:27:39.714Z,9.31
2023-01-07T21:30:41.632Z,9.82
2023-01-07T21:33:43.803Z,9.15
2023-01-07T21:36:45.739Z,8.60
2023-01-07T21:39:48.902Z,8.29
2023-01-07T21:42:50.898Z,8.26
2023-01-07T21:45:53.139Z,8.99
2023-01-07T21:48:55.084Z,8.98
2023-01-07T21:51:57.007Z,8.44
2023-01-07T21:54:58.942Z,8.88
2023-01-07T21:58:00.800Z,9.37
2023-01-07T22:01:03.260Z,9.72
2023-01-07T22:04:05.285Z,8.57
2023-01-07T22:07:09.401Z,9.38
2023-01-07T22:10:11.295Z,7.38
2023-01-07T22:13:13.292Z,8.49
2023-01-07T22:16:15.175Z,8.43
2023-01-07T22:19:17.081Z,9.01
2023-01-07T22:22:20.939Z,8.70
2023-01-07T22:25:22.855Z,8.90
2023-01-07T22:28:24.789Z,8.25
2023-01-07T22:31:28.041Z,8.63
2023-01-07T22:34:30.114Z,8.85
2023-01-07T22:37:31.947Z,9.54
2023-01-07T22:40:35.051Z,8.89
2023-01-07T22:43:36.983Z,9.50
2023-01-07T22:46:38.863Z,9.05
2023-01-07T22:49:40.758Z,9.00
2023-01-07T22:52:42.725Z,8.50
2023-01-07T22:55:48.541Z,8.69
2023-01-07T22:58:50.437Z,8.36
2023-01-07T23:01:52.331Z,8.22
2023-01-07T23:04:54.325Z,9.36
2023-01-07T23:07:57.464Z,10.02
2023-01-07T23:10:59.476Z,9.82
2023-01-07T23:14:01.616Z,9.32
2023-01-07T23:17:03.498Z,9.19
2023-01-07T23:20:05.681Z,8.31
2023-01-07T23:23:07.770Z,8.58
2023-01-07T23:26:12.755Z,9.03
2023-01-07T23:29:14.599Z,8.78
2023-01-07T23:32:16.542Z,7.54
2023-01-07T23:35:18.442Z,8.62
2023-01-07T23:38:20.294Z,8.36
2023-01-07T23:41:22.172Z,9.66
2023-01-07T23:44:24.383Z,9.19
2023-01-07T23:47:26.315Z,9.48
2023-01-07T23:50:28.233Z,8.86
2023-01-07T23:53:30.129Z,8.18
2023-01-07T23:56:32.178Z,8.43
2023-01-07T23:59:34.156Z,9.31
